Aviation Digital Data Service (ADDS)

Output produced by METARs form (1842 UTC 27 July 2017)
found at http://aviationweather.gov/adds/metars/
 
KPQI 271734Z 2718/2818 20010KT P6SM SCT025 OVC035 
     FM272200 21010KT P6SM VCTS OVC030CB 
     FM280100 22005KT P6SM VCSH BKN040 
     FM280300 22005KT 2SM BR SCT010 BKN040 
     FM281200 31005KT P6SM BKN040